createdAt,value
2022-12-18T00:00:49.487Z,-1.47
2022-12-18T00:03:16.636Z,-1.44
2022-12-18T00:05:53.156Z,-1.41
2022-12-18T00:08:20.032Z,-1.49
2022-12-18T00:10:46.485Z,-1.43
2022-12-18T00:13:13.368Z,-1.45
2022-12-18T00:15:40.564Z,-1.46
2022-12-18T00:18:07.372Z,-1.48
2022-12-18T00:20:39.014Z,-1.58
2022-12-18T00:23:06.551Z,-1.62
2022-12-18T00:25:37.475Z,-1.60
2022-12-18T00:28:05.186Z,-1.58
2022-12-18T00:30:31.668Z,-1.65
2022-12-18T00:32:58.652Z,-1.71
2022-12-18T00:35:25.861Z,-1.70
2022-12-18T00:37:52.730Z,-1.66
2022-12-18T00:40:19.096Z,-1.60
2022-12-18T00:42:57.681Z,-1.61
2022-12-18T00:45:29.596Z,-1.64
2022-12-18T00:47:56.882Z,-1.67
2022-12-18T00:50:25.306Z,-1.63
2022-12-18T00:52:52.031Z,-1.65
2022-12-18T00:55:19.322Z,-1.67
2022-12-18T00:57:47.070Z,-1.67
2022-12-18T01:00:15.743Z,-1.61
2022-12-18T01:02:43.480Z,-1.59
2022-12-18T01:05:11.921Z,-1.65
2022-12-18T01:07:38.658Z,-1.65
2022-12-18T01:10:06.191Z,-1.62
2022-12-18T01:12:35.350Z,-1.59
2022-12-18T01:15:02.328Z,-1.56
2022-12-18T01:17:28.765Z,-1.52
2022-12-18T01:19:55.148Z,-1.49
2022-12-18T01:22:21.593Z,-1.51
2022-12-18T01:24:48.043Z,-1.57
2022-12-18T01:27:14.799Z,-1.60
2022-12-18T01:29:41.326Z,-1.57
2022-12-18T01:32:08.735Z,-1.68
2022-12-18T01:34:37.412Z,-1.70
2022-12-18T01:37:05.435Z,-1.72
2022-12-18T01:39:35.392Z,-1.74
2022-12-18T01:42:09.864Z,-1.73
2022-12-18T01:45:02.619Z,-1.71
2022-12-18T01:47:46.370Z,-1.68
2022-12-18T01:50:28.036Z,-1.67
2022-12-18T01:53:06.562Z,-1.69
2022-12-18T01:55:40.865Z,-1.76
2022-12-18T01:58:07.467Z,-1.77
2022-12-18T02:00:33.875Z,-1.76
2022-12-18T02:03:00.486Z,-1.82
2022-12-18T02:05:46.842Z,-1.81
2022-12-18T02:08:33.409Z,-1.77
2022-12-18T02:11:41.644Z,-1.76
2022-12-18T02:14:19.100Z,-1.84
2022-12-18T02:17:04.315Z,-1.83
2022-12-18T02:19:52.086Z,-1.87
2022-12-18T02:22:36.051Z,-1.95
2022-12-18T02:25:51.346Z,-1.93
2022-12-18T02:28:22.107Z,-1.95
2022-12-18T02:30:51.740Z,-1.96
2022-12-18T02:33:22.376Z,-1.96
2022-12-18T02:35:50.042Z,-1.93
2022-12-18T02:38:17.751Z,-1.90
2022-12-18T02:40:47.156Z,-1.91
2022-12-18T02:43:17.188Z,-1.95
2022-12-18T02:45:49.315Z,-2.07
2022-12-18T02:48:18.544Z,-2.03
2022-12-18T02:50:58.577Z,-1.97
2022-12-18T02:53:51.057Z,-2.04
2022-12-18T02:56:39.365Z,-2.03
2022-12-18T02:59:24.993Z,-2.11
2022-12-18T03:02:05.146Z,-2.17
2022-12-18T03:04:41.175Z,-2.25
2022-12-18T03:07:14.200Z,-2.20
2022-12-18T03:09:47.469Z,-2.18
2022-12-18T03:12:23.829Z,-2.17
2022-12-18T03:14:56.751Z,-2.19
2022-12-18T03:17:27.935Z,-2.19
2022-12-18T03:19:59.297Z,-2.16
2022-12-18T03:22:30.527Z,-2.18
2022-12-18T03:24:58.287Z,-2.26
2022-12-18T03:27:27.191Z,-2.21
2022-12-18T03:30:15.732Z,-2.19
2022-12-18T03:32:45.436Z,-2.15
2022-12-18T03:35:15.619Z,-2.19
2022-12-18T03:37:42.456Z,-2.14
2022-12-18T03:40:09.823Z,-2.15
2022-12-18T03:42:50.852Z,-2.17
2022-12-18T03:45:33.408Z,-2.20
2022-12-18T03:48:14.852Z,-2.22
2022-12-18T03:51:30.418Z,-2.15
2022-12-18T03:54:05.304Z,-2.11
2022-12-18T03:56:43.064Z,-2.10
2022-12-18T03:59:13.701Z,-2.12
2022-12-18T04:01:46.288Z,-2.11
2022-12-18T04:04:17.486Z,-2.15
2022-12-18T04:06:47.636Z,-2.13
2022-12-18T04:09:15.301Z,-2.15
2022-12-18T04:11:47.080Z,-2.16
2022-12-18T04:14:17.937Z,-2.16
2022-12-18T04:16:45.979Z,-2.19
2022-12-18T04:19:15.520Z,-2.14
2022-12-18T04:21:44.289Z,-2.13
2022-12-18T04:24:12.621Z,-2.13
2022-12-18T04:26:45.035Z,-2.14
2022-12-18T04:29:15.873Z,-2.16
2022-12-18T04:31:42.528Z,-2.13
2022-12-18T04:34:09.639Z,-2.13
2022-12-18T04:36:42.079Z,-2.13
2022-12-18T04:39:08.606Z,-2.15
2022-12-18T04:41:35.592Z,-2.15
2022-12-18T04:44:03.112Z,-2.15
2022-12-18T04:46:29.638Z,-2.14
2022-12-18T04:48:56.105Z,-2.12
2022-12-18T04:51:26.319Z,-2.11
2022-12-18T04:53:53.542Z,-2.11
2022-12-18T04:56:19.980Z,-2.15
2022-12-18T04:58:46.479Z,-2.17
2022-12-18T05:01:16.890Z,-2.19
2022-12-18T05:03:44.232Z,-2.19
2022-12-18T05:06:11.170Z,-2.16
2022-12-18T05:08:37.704Z,-2.17
2022-12-18T05:11:07.199Z,-2.16
2022-12-18T05:13:34.172Z,-2.15
2022-12-18T05:16:00.784Z,-2.13
2022-12-18T05:18:27.913Z,-2.16
2022-12-18T05:20:54.801Z,-2.19
2022-12-18T05:23:22.688Z,-2.22
2022-12-18T05:26:02.119Z,-2.21
2022-12-18T05:28:30.323Z,-2.23
2022-12-18T05:30:59.534Z,-2.21
2022-12-18T05:33:29.311Z,-2.24
2022-12-18T05:35:58.641Z,-2.26
2022-12-18T05:38:26.947Z,-2.28
2022-12-18T05:40:53.947Z,-2.30
2022-12-18T05:43:22.649Z,-2.31
2022-12-18T05:45:50.018Z,-2.37
2022-12-18T05:48:17.103Z,-2.39
2022-12-18T05:50:48.355Z,-2.40
2022-12-18T05:53:17.181Z,-2.47
2022-12-18T05:55:44.623Z,-2.55
2022-12-18T05:58:12.659Z,-2.58
2022-12-18T06:00:41.061Z,-2.60
2022-12-18T06:03:12.609Z,-2.59
2022-12-18T06:05:41.674Z,-2.64
2022-12-18T06:08:08.375Z,-2.74
2022-12-18T06:10:34.893Z,-2.72
2022-12-18T06:13:01.919Z,-2.71
2022-12-18T06:15:28.330Z,-2.69
2022-12-18T06:17:54.725Z,-2.67
2022-12-18T06:20:21.731Z,-2.67
2022-12-18T06:22:48.125Z,-2.71
2022-12-18T06:25:14.820Z,-2.75
2022-12-18T06:27:41.332Z,-2.76
2022-12-18T06:30:09.356Z,-2.80
2022-12-18T06:32:35.781Z,-2.79
2022-12-18T06:35:02.188Z,-2.80
2022-12-18T06:37:29.144Z,-2.80
2022-12-18T06:39:55.642Z,-2.82
2022-12-18T06:42:23.971Z,-2.85
2022-12-18T06:44:50.411Z,-2.93
2022-12-18T06:47:16.758Z,-2.93
2022-12-18T06:49:43.960Z,-2.90
2022-12-18T06:52:10.393Z,-2.91
2022-12-18T06:54:36.743Z,-2.97
2022-12-18T06:57:03.242Z,-2.97
2022-12-18T06:59:29.648Z,-2.98
2022-12-18T07:01:56.208Z,-2.97
2022-12-18T07:04:22.691Z,-2.98
2022-12-18T07:06:49.085Z,-2.94
2022-12-18T07:09:15.533Z,-2.95
2022-12-18T07:11:42.620Z,-2.97
2022-12-18T07:14:08.987Z,-2.97
2022-12-18T07:16:35.447Z,-2.95
2022-12-18T07:19:01.941Z,-2.96
2022-12-18T07:21:28.600Z,-2.94
2022-12-18T07:23:54.959Z,-2.94
2022-12-18T07:26:22.842Z,-3.04
2022-12-18T07:28:50.124Z,-3.04
2022-12-18T07:31:19.476Z,-3.02
2022-12-18T07:33:46.984Z,-2.98
2022-12-18T07:36:13.676Z,-2.98
2022-12-18T07:38:40.736Z,-3.03
2022-12-18T07:41:12.789Z,-3.02
2022-12-18T07:43:40.749Z,-3.06
2022-12-18T07:46:09.617Z,-3.04
2022-12-18T07:48:36.239Z,-2.95
2022-12-18T07:51:07.318Z,-3.04
2022-12-18T07:53:34.740Z,-3.06
2022-12-18T07:56:26.469Z,-3.07
2022-12-18T07:58:49.932Z,-3.01
2022-12-18T08:01:16.371Z,-2.84
2022-12-18T08:03:43.738Z,-2.77
2022-12-18T08:06:10.848Z,-2.70
2022-12-18T08:08:37.824Z,-2.74
2022-12-18T08:11:04.288Z,-2.75
2022-12-18T08:13:30.636Z,-2.72
2022-12-18T08:15:58.942Z,-2.69
2022-12-18T08:18:26.338Z,-2.66
2022-12-18T08:20:52.771Z,-2.67
2022-12-18T08:23:19.186Z,-2.72
2022-12-18T08:25:45.539Z,-2.68
2022-12-18T08:28:12.226Z,-2.65
2022-12-18T08:30:38.722Z,-2.68
2022-12-18T08:33:05.157Z,-2.69
2022-12-18T08:35:38.819Z,-2.71
2022-12-18T08:38:07.581Z,-2.71
2022-12-18T08:40:34.118Z,-2.76
2022-12-18T08:43:19.168Z,-2.84
2022-12-18T08:45:45.602Z,-2.81
2022-12-18T08:48:12.016Z,-2.82
2022-12-18T08:50:38.423Z,-2.79
2022-12-18T08:53:05.148Z,-2.72
2022-12-18T08:55:31.566Z,-2.66
2022-12-18T08:57:57.920Z,-2.65
2022-12-18T09:00:24.463Z,-2.69
2022-12-18T09:02:51.006Z,-2.68
2022-12-18T09:05:17.489Z,-2.71
2022-12-18T09:07:43.923Z,-2.68
2022-12-18T09:10:11.240Z,-2.61
2022-12-18T09:12:37.659Z,-2.59
2022-12-18T09:15:04.578Z,-2.51
2022-12-18T09:17:31.002Z,-2.55
2022-12-18T09:19:57.483Z,-2.54
2022-12-18T09:22:23.836Z,-2.53
2022-12-18T09:24:50.267Z,-2.50
2022-12-18T09:27:16.685Z,-2.47
2022-12-18T09:29:43.507Z,-2.46
2022-12-18T09:32:09.934Z,-2.47
2022-12-18T09:34:36.338Z,-2.51
2022-12-18T09:37:03.032Z,-2.50
2022-12-18T09:39:29.452Z,-2.53
2022-12-18T09:41:58.755Z,-2.47
2022-12-18T09:44:29.753Z,-2.46
2022-12-18T09:47:18.191Z,-2.44
2022-12-18T09:49:53.583Z,-2.44
2022-12-18T09:52:26.460Z,-2.46
2022-12-18T09:55:00.943Z,-2.45
2022-12-18T09:57:27.540Z,-2.41
2022-12-18T10:00:04.114Z,-2.45
2022-12-18T10:02:38.151Z,-2.47
2022-12-18T10:05:12.497Z,-2.39
2022-12-18T10:07:53.529Z,-2.33
2022-12-18T10:10:24.028Z,-2.37
2022-12-18T10:13:02.587Z,-2.37
2022-12-18T10:15:39.569Z,-2.30
2022-12-18T10:18:22.038Z,-2.27
2022-12-18T10:21:00.927Z,-2.26
2022-12-18T10:23:37.112Z,-2.29
2022-12-18T10:26:06.642Z,-2.32
2022-12-18T10:28:36.787Z,-2.26
2022-12-18T10:31:05.791Z,-2.18
2022-12-18T10:33:33.850Z,-2.10
2022-12-18T10:36:01.187Z,-2.08
2022-12-18T10:38:32.843Z,-2.13
2022-12-18T10:41:02.358Z,-2.13
2022-12-18T10:43:31.233Z,-2.09
2022-12-18T10:46:09.854Z,-2.07
2022-12-18T10:48:43.154Z,-2.08
2022-12-18T10:51:12.663Z,-2.07
2022-12-18T10:53:42.749Z,-2.07
2022-12-18T10:56:09.764Z,-2.02
2022-12-18T10:58:38.862Z,-1.99
2022-12-18T11:01:11.375Z,-1.97
2022-12-18T11:03:39.390Z,-1.94
2022-12-18T11:06:14.408Z,-1.88
2022-12-18T11:08:43.493Z,-1.32
2022-12-18T11:11:23.752Z,-0.38
2022-12-18T11:14:07.525Z,-0.56
2022-12-18T11:16:57.847Z,-0.89
2022-12-18T11:19:37.235Z,-1.11
2022-12-18T11:22:24.112Z,-1.29
2022-12-18T11:25:32.213Z,-1.38
2022-12-18T11:27:58.749Z,-1.43
2022-12-18T11:30:25.167Z,-1.41
2022-12-18T11:33:04.808Z,-1.42
2022-12-18T11:35:33.891Z,-1.44
2022-12-18T11:38:11.718Z,-1.42
2022-12-18T11:40:41.715Z,-1.55
2022-12-18T11:43:14.319Z,-1.46
2022-12-18T11:45:48.228Z,-1.48
2022-12-18T11:48:22.556Z,-1.44
2022-12-18T11:50:55.113Z,-1.47
2022-12-18T11:53:21.888Z,-1.46
2022-12-18T11:56:17.513Z,-1.41
2022-12-18T11:58:48.773Z,-1.43
2022-12-18T12:01:43.415Z,-1.45
2022-12-18T12:04:29.286Z,-1.38
2022-12-18T12:07:22.538Z,-1.41
2022-12-18T12:10:03.052Z,-1.42
2022-12-18T12:12:48.581Z,-1.44
2022-12-18T12:15:43.867Z,-1.40
2022-12-18T12:18:28.878Z,-1.31
2022-12-18T12:21:16.140Z,-1.22
2022-12-18T12:24:13.508Z,-1.14
2022-12-18T12:27:01.803Z,-1.12
2022-12-18T12:29:52.792Z,-1.12
2022-12-18T12:32:25.609Z,-1.11
2022-12-18T12:35:09.490Z,-1.11
2022-12-18T12:38:03.277Z,-1.13
2022-12-18T12:40:52.390Z,-1.22
2022-12-18T12:43:39.225Z,-1.16
2022-12-18T12:46:14.160Z,-1.11
2022-12-18T12:48:50.550Z,-1.10
2022-12-18T12:51:22.003Z,-1.07
2022-12-18T12:53:49.794Z,-1.07
2022-12-18T12:56:19.801Z,-1.00
2022-12-18T12:58:53.140Z,-0.91
2022-12-18T13:01:37.285Z,-0.69
2022-12-18T13:04:23.995Z,-0.48
2022-12-18T13:06:59.495Z,-0.54
2022-12-18T13:09:25.987Z,-0.67
2022-12-18T13:12:11.350Z,-0.80
2022-12-18T13:14:40.683Z,-0.78
2022-12-18T13:17:18.382Z,-0.81
2022-12-18T13:19:45.795Z,-0.74
2022-12-18T13:22:31.448Z,-0.70
2022-12-18T13:24:58.231Z,-0.71
2022-12-18T13:27:43.774Z,-0.65
2022-12-18T13:30:32.103Z,-0.68
2022-12-18T13:33:19.058Z,-0.74
2022-12-18T13:35:48.765Z,-0.83
2022-12-18T13:38:35.948Z,-0.88
2022-12-18T13:41:05.279Z,-0.90
2022-12-18T13:43:43.774Z,-0.86
2022-12-18T13:46:29.837Z,-0.84
2022-12-18T13:49:03.628Z,-0.82
2022-12-18T13:51:33.865Z,-0.85
2022-12-18T13:54:18.620Z,-0.84
2022-12-18T13:56:47.324Z,-0.84
2022-12-18T13:59:40.887Z,-0.84
2022-12-18T14:02:22.725Z,-0.87
2022-12-18T14:04:50.254Z,-0.83
2022-12-18T14:07:23.124Z,-0.86
2022-12-18T14:10:01.988Z,-0.86
2022-12-18T14:12:57.631Z,-0.80
2022-12-18T14:15:43.487Z,-0.20
2022-12-18T14:18:47.431Z,-0.23
2022-12-18T14:21:30.235Z,-0.31
2022-12-18T14:24:19.736Z,-0.43
2022-12-18T14:26:48.477Z,-0.50
2022-12-18T14:29:24.875Z,-0.52
2022-12-18T14:32:17.406Z,-0.61
2022-12-18T14:34:53.166Z,-0.67
2022-12-18T14:37:25.918Z,-0.69
2022-12-18T14:40:03.229Z,-0.63
2022-12-18T14:42:34.685Z,-0.57
2022-12-18T14:45:42.614Z,-0.55
2022-12-18T14:48:23.340Z,-0.55
2022-12-18T14:51:18.326Z,-0.57
2022-12-18T14:53:53.972Z,-0.60
2022-12-18T14:56:23.218Z,-0.59
2022-12-18T14:58:56.410Z,-0.59
2022-12-18T15:01:27.403Z,-0.61
2022-12-18T15:03:55.342Z,-0.61
2022-12-18T15:06:31.106Z,-0.58
2022-12-18T15:08:59.228Z,-0.63
2022-12-18T15:11:36.559Z,-0.57
2022-12-18T15:14:31.916Z,-0.56
2022-12-18T15:17:01.024Z,-0.55
2022-12-18T15:19:36.584Z,-0.55
2022-12-18T15:22:06.332Z,-0.54
2022-12-18T15:24:33.551Z,-0.52
2022-12-18T15:27:01.168Z,-0.52
2022-12-18T15:29:27.918Z,-0.51
2022-12-18T15:32:06.445Z,-0.55
2022-12-18T15:34:34.927Z,-0.62
2022-12-18T15:37:01.362Z,-0.59
2022-12-18T15:39:27.763Z,-0.54
2022-12-18T15:42:12.716Z,-0.51
2022-12-18T15:44:39.320Z,-0.52
2022-12-18T15:47:11.531Z,-0.52
2022-12-18T15:49:37.985Z,-0.56
2022-12-18T15:52:05.223Z,-0.52
2022-12-18T15:54:50.190Z,-0.54
2022-12-18T15:57:25.461Z,-0.51
2022-12-18T15:59:54.051Z,-0.48
2022-12-18T16:02:23.652Z,-0.43
2022-12-18T16:04:52.947Z,-0.55
2022-12-18T16:07:25.436Z,-0.54
2022-12-18T16:09:53.126Z,-0.57
2022-12-18T16:12:24.921Z,-0.50
2022-12-18T16:14:51.414Z,-0.47
2022-12-18T16:17:18.031Z,-0.41
2022-12-18T16:19:45.324Z,-0.43
2022-12-18T16:22:23.482Z,-0.33
2022-12-18T16:24:51.196Z,-0.31
2022-12-18T16:27:17.766Z,-0.19
2022-12-18T16:29:44.192Z,-0.05
2022-12-18T16:32:15.713Z,-0.12
2022-12-18T16:34:43.046Z,-0.18
2022-12-18T16:37:10.979Z,-0.18
2022-12-18T16:39:38.918Z,-0.19
2022-12-18T16:42:09.896Z,-0.30
2022-12-18T16:44:36.389Z,-0.32
2022-12-18T16:47:04.262Z,-0.21
2022-12-18T16:49:31.338Z,-0.23
2022-12-18T16:51:57.776Z,-0.28
2022-12-18T16:54:25.758Z,-0.25
2022-12-18T16:56:52.644Z,-0.22
2022-12-18T16:59:19.233Z,-0.27
2022-12-18T17:01:47.116Z,-0.27
2022-12-18T17:04:14.729Z,-0.28
2022-12-18T17:06:43.790Z,-0.25
2022-12-18T17:09:17.134Z,-0.30
2022-12-18T17:11:44.166Z,-0.24
2022-12-18T17:14:15.104Z,-0.28
2022-12-18T17:16:41.582Z,-0.22
2022-12-18T17:19:13.741Z,-0.13
2022-12-18T17:21:45.211Z,-0.16
2022-12-18T17:24:11.564Z,-0.11
2022-12-18T17:26:37.987Z,-0.10
2022-12-18T17:29:04.540Z,-0.16
2022-12-18T17:31:31.523Z,-0.13
2022-12-18T17:33:58.492Z,-0.15
2022-12-18T17:36:28.418Z,-0.17
2022-12-18T17:38:57.945Z,-0.18
2022-12-18T17:41:25.670Z,-0.18
2022-12-18T17:43:53.746Z,-0.15
2022-12-18T17:46:20.657Z,-0.17
2022-12-18T17:48:47.606Z,-0.23
2022-12-18T17:51:15.339Z,-0.28
2022-12-18T17:53:42.345Z,-0.26
2022-12-18T17:56:13.136Z,-0.15
2022-12-18T17:58:40.467Z,-0.17
2022-12-18T18:01:07.013Z,-0.06
2022-12-18T18:03:34.495Z,0.04
2022-12-18T18:06:02.226Z,0.03
2022-12-18T18:08:29.027Z,0.09
2022-12-18T18:11:16.229Z,0.09
2022-12-18T18:14:00.715Z,0.10
2022-12-18T18:16:50.283Z,0.13
2022-12-18T18:19:20.011Z,0.08
2022-12-18T18:21:48.363Z,0.00
2022-12-18T18:24:18.702Z,0.00
2022-12-18T18:26:46.731Z,-0.03
2022-12-18T18:29:16.211Z,0.10
2022-12-18T18:31:42.762Z,0.12
2022-12-18T18:34:24.431Z,0.14
2022-12-18T18:36:51.829Z,0.09
2022-12-18T18:39:18.792Z,0.15
2022-12-18T18:41:48.069Z,0.14
2022-12-18T18:44:16.415Z,0.22
2022-12-18T18:46:42.766Z,0.26
2022-12-18T18:49:09.572Z,0.17
2022-12-18T18:51:35.969Z,0.09
2022-12-18T18:54:02.535Z,0.17
2022-12-18T18:59:16.320Z,0.10
2022-12-18T19:01:43.932Z,0.10
2022-12-18T19:04:10.755Z,0.05
2022-12-18T19:06:37.176Z,0.10
2022-12-18T19:09:04.782Z,0.12
2022-12-18T19:11:49.701Z,0.16
2022-12-18T19:14:16.880Z,0.22
2022-12-18T19:16:45.394Z,0.27
2022-12-18T19:19:13.023Z,0.19
2022-12-18T19:21:40.751Z,0.24
2022-12-18T19:24:07.570Z,0.36
2022-12-18T19:26:35.790Z,0.45
2022-12-18T19:29:05.700Z,0.40
2022-12-18T19:31:36.172Z,0.38
2022-12-18T19:34:04.813Z,0.45
2022-12-18T19:36:32.537Z,0.38
2022-12-18T19:39:01.011Z,0.38
2022-12-18T19:41:31.205Z,0.34
2022-12-18T19:43:59.340Z,0.31
2022-12-18T19:46:25.807Z,0.35
2022-12-18T19:48:52.448Z,0.32
2022-12-18T19:51:25.275Z,0.33
2022-12-18T19:53:58.132Z,0.30
2022-12-18T19:56:28.559Z,0.30
2022-12-18T19:58:55.406Z,0.20
2022-12-18T20:01:23.652Z,0.27
2022-12-18T20:03:52.591Z,0.21
2022-12-18T20:06:31.990Z,0.21
2022-12-18T20:09:04.841Z,0.20
2022-12-18T20:11:33.245Z,0.21
2022-12-18T20:14:02.214Z,0.21
2022-12-18T20:19:15.910Z,0.27
2022-12-18T20:20:46.137Z,0.20
2022-12-18T20:21:42.663Z,0.31
2022-12-18T20:24:09.377Z,0.27
2022-12-18T20:26:35.798Z,0.26
2022-12-18T20:29:02.167Z,0.28
2022-12-18T20:31:28.649Z,0.19
2022-12-18T20:33:59.592Z,0.19
2022-12-18T20:36:28.130Z,0.25
2022-12-18T20:38:58.191Z,0.18
2022-12-18T20:41:38.529Z,0.23
2022-12-18T20:44:22.371Z,0.25
2022-12-18T20:46:56.216Z,0.18
2022-12-18T20:49:24.983Z,0.21
2022-12-18T20:51:53.285Z,0.28
2022-12-18T20:54:20.930Z,0.32
2022-12-18T20:56:47.413Z,0.28
2022-12-18T20:59:14.354Z,0.55
2022-12-18T21:01:41.627Z,0.59
2022-12-18T21:04:15.259Z,0.52
2022-12-18T21:06:47.510Z,0.51
2022-12-18T21:09:17.219Z,0.51
2022-12-18T21:12:02.218Z,0.42
2022-12-18T21:14:30.908Z,0.33
2022-12-18T21:17:00.689Z,0.26
2022-12-18T21:19:28.215Z,0.26
2022-12-18T21:21:56.420Z,0.35
2022-12-18T21:24:23.309Z,0.39
2022-12-18T21:26:49.955Z,0.34
2022-12-18T21:29:19.595Z,0.27
2022-12-18T21:31:46.710Z,0.28
2022-12-18T21:34:20.452Z,0.35
2022-12-18T21:36:48.240Z,0.39
2022-12-18T21:39:16.277Z,0.40
2022-12-18T21:42:01.578Z,0.38
2022-12-18T21:44:28.192Z,0.34
2022-12-18T21:46:59.797Z,0.33
2022-12-18T21:49:30.239Z,0.37
2022-12-18T21:51:58.529Z,0.37
2022-12-18T21:54:26.968Z,0.30
2022-12-18T21:56:55.723Z,0.35
2022-12-18T21:59:28.187Z,0.36
2022-12-18T22:01:57.445Z,0.38
2022-12-18T22:04:25.239Z,0.46
2022-12-18T22:06:52.431Z,0.49
2022-12-18T22:09:21.161Z,0.51
2022-12-18T22:11:49.094Z,0.67
2022-12-18T22:14:19.074Z,0.72
2022-12-18T22:16:45.733Z,0.75
2022-12-18T22:19:14.171Z,0.64
2022-12-18T22:21:45.522Z,0.60
2022-12-18T22:24:12.952Z,0.61
2022-12-18T22:26:40.406Z,0.60
2022-12-18T22:29:26.678Z,0.62
2022-12-18T22:31:53.025Z,0.67
2022-12-18T22:34:22.876Z,0.63
2022-12-18T22:36:50.712Z,0.53
2022-12-18T22:39:19.922Z,0.60
2022-12-18T22:41:46.598Z,0.64
2022-12-18T22:44:14.998Z,0.56
2022-12-18T22:46:46.569Z,0.57
2022-12-18T22:49:18.889Z,0.51
2022-12-18T22:51:45.331Z,0.42
2022-12-18T22:54:12.020Z,0.49
2022-12-18T22:56:38.851Z,0.52
2022-12-18T22:59:05.895Z,0.55
2022-12-18T23:01:32.981Z,0.53
2022-12-18T23:04:02.165Z,0.54
2022-12-18T23:06:28.768Z,0.58
2022-12-18T23:08:57.828Z,0.59
2022-12-18T23:11:25.897Z,0.49
2022-12-18T23:13:53.189Z,0.53
2022-12-18T23:16:23.382Z,0.59
2022-12-18T23:18:55.093Z,0.64
2022-12-18T23:21:22.584Z,0.62
2022-12-18T23:23:50.164Z,0.68
2022-12-18T23:26:19.865Z,0.68
2022-12-18T23:28:46.879Z,0.69
2022-12-18T23:31:24.741Z,0.71
2022-12-18T23:33:52.772Z,0.73
2022-12-18T23:36:20.449Z,0.80
2022-12-18T23:38:51.527Z,0.83
2022-12-18T23:41:19.765Z,0.82
2022-12-18T23:43:46.239Z,0.89
2022-12-18T23:46:28.247Z,0.90
2022-12-18T23:49:01.190Z,0.83
2022-12-18T23:51:28.460Z,0.85
2022-12-18T23:53:57.449Z,0.93
2022-12-18T23:56:25.139Z,0.89
2022-12-18T23:58:52.657Z,0.93
